createdAt,value
2023-04-02T00:01:36.721Z,9.25
2023-04-02T00:04:08.956Z,9.70
2023-04-02T00:06:40.414Z,9.13
2023-04-02T00:09:13.190Z,10.63
2023-04-02T00:11:42.178Z,9.02
2023-04-02T00:14:19.268Z,8.48
2023-04-02T00:16:45.953Z,8.68
2023-04-02T00:19:19.699Z,9.05
2023-04-02T00:21:46.976Z,8.82
2023-04-02T00:24:17.284Z,9.05
2023-04-02T00:26:49.010Z,9.20
2023-04-02T00:29:16.628Z,8.82
2023-04-02T00:31:48.747Z,8.50
2023-04-02T00:34:23.035Z,9.20
2023-04-02T00:36:50.952Z,8.55
2023-04-02T00:39:23.117Z,9.13
2023-04-02T00:42:06.834Z,9.35
2023-04-02T00:44:37.903Z,9.55
2023-04-02T00:47:12.167Z,6.97
2023-04-02T00:49:40.331Z,9.73
2023-04-02T00:52:10.169Z,9.35
2023-04-02T00:54:47.193Z,8.63
2023-04-02T00:57:20.314Z,8.55
2023-04-02T01:00:07.573Z,8.77
2023-04-02T01:02:38.253Z,9.00
2023-04-02T01:05:22.170Z,7.75
2023-04-02T01:07:57.590Z,7.72
2023-04-02T01:10:36.028Z,8.90
2023-04-02T01:13:07.183Z,8.55
2023-04-02T01:15:39.115Z,7.93
2023-04-02T01:18:33.643Z,7.90
2023-04-02T01:21:09.591Z,8.75
2023-04-02T01:23:35.898Z,9.00
2023-04-02T01:26:23.861Z,9.10
2023-04-02T01:29:13.834Z,8.75
2023-04-02T01:31:40.889Z,8.00
2023-04-02T01:34:15.273Z,8.57
2023-04-02T01:36:51.173Z,8.02
2023-04-02T01:39:53.085Z,8.07
2023-04-02T01:42:32.058Z,8.25
2023-04-02T01:45:05.405Z,6.72
2023-04-02T01:47:33.179Z,7.65
2023-04-02T01:50:26.159Z,8.40
2023-04-02T01:52:55.480Z,7.40
2023-04-02T01:55:45.895Z,8.93
2023-04-02T01:58:13.924Z,9.13
2023-04-02T02:00:51.407Z,9.00
2023-04-02T02:03:19.088Z,8.68
2023-04-02T02:05:46.444Z,8.50
2023-04-02T02:08:40.288Z,7.43
2023-04-02T02:11:08.343Z,6.18
2023-04-02T02:13:34.804Z,7.18
2023-04-02T02:16:02.040Z,8.07
2023-04-02T02:18:29.081Z,8.00
2023-04-02T02:20:58.147Z,7.65
2023-04-02T02:23:24.840Z,6.88
2023-04-02T02:25:51.413Z,7.30
2023-04-02T02:28:33.536Z,6.93
2023-04-02T02:31:03.935Z,6.88
2023-04-02T02:33:39.519Z,7.75
2023-04-02T02:36:08.939Z,6.78
2023-04-02T02:39:01.070Z,6.68
2023-04-02T02:41:35.517Z,6.70
2023-04-02T02:44:24.234Z,6.90
2023-04-02T02:49:28.563Z,5.55
2023-04-02T02:52:03.728Z,5.38
2023-04-02T02:54:32.620Z,6.80
2023-04-02T02:57:03.435Z,7.05
2023-04-02T02:59:30.834Z,6.38
2023-04-02T03:01:58.154Z,7.78
2023-04-02T03:04:25.302Z,6.82
2023-04-02T03:06:53.197Z,6.55
2023-04-02T03:09:31.445Z,6.80
2023-04-02T03:12:15.843Z,5.90
2023-04-02T03:14:54.785Z,6.72
2023-04-02T03:17:26.106Z,5.93
2023-04-02T03:19:57.614Z,6.65
2023-04-02T03:22:27.121Z,6.45
2023-04-02T03:25:01.891Z,7.47
2023-04-02T03:27:31.232Z,6.18
2023-04-02T03:30:03.957Z,7.47
2023-04-02T03:32:33.041Z,6.88
2023-04-02T03:35:03.482Z,6.97
2023-04-02T03:38:00.793Z,7.22
2023-04-02T03:40:31.963Z,7.57
2023-04-02T03:43:04.045Z,6.70
2023-04-02T03:45:37.063Z,6.53
2023-04-02T03:48:10.633Z,6.53
2023-04-02T03:50:47.442Z,4.97
2023-04-02T03:53:13.835Z,7.18
2023-04-02T03:55:41.881Z,6.15
2023-04-02T03:58:18.857Z,6.88
2023-04-02T04:00:51.912Z,5.75
2023-04-02T04:03:24.579Z,7.00
2023-04-02T04:05:53.822Z,6.53
2023-04-02T04:08:42.442Z,6.13
2023-04-02T04:11:14.377Z,7.18
2023-04-02T04:13:54.429Z,6.53
2023-04-02T04:16:27.410Z,6.70
2023-04-02T04:19:03.516Z,6.38
2023-04-02T04:21:31.178Z,5.55
2023-04-02T04:24:03.758Z,6.15
2023-04-02T04:26:57.142Z,5.20
2023-04-02T04:29:47.124Z,6.10
2023-04-02T04:32:32.337Z,5.30
2023-04-02T04:35:26.007Z,5.93
2023-04-02T04:37:58.821Z,5.20
2023-04-02T04:40:36.464Z,6.18
2023-04-02T04:43:15.988Z,6.80
2023-04-02T04:45:55.844Z,5.40
2023-04-02T04:48:50.058Z,5.95
2023-04-02T04:51:24.077Z,5.45
2023-04-02T04:53:52.531Z,5.35
2023-04-02T04:56:22.231Z,4.53
2023-04-02T04:58:50.830Z,4.47
2023-04-02T05:01:23.228Z,4.70
2023-04-02T05:03:58.643Z,4.43
2023-04-02T05:06:52.019Z,4.10
2023-04-02T05:09:24.627Z,4.20
2023-04-02T05:12:10.991Z,4.03
2023-04-02T05:14:50.632Z,4.30
2023-04-02T05:17:21.432Z,4.22
2023-04-02T05:19:53.240Z,4.07
2023-04-02T05:22:22.062Z,3.88
2023-04-02T05:24:53.812Z,3.72
2023-04-02T05:27:29.106Z,3.60
2023-04-02T05:30:10.641Z,3.90
2023-04-02T05:32:42.670Z,3.90
2023-04-02T05:35:15.634Z,3.55
2023-04-02T05:37:42.256Z,3.63
2023-04-02T05:40:44.517Z,3.20
2023-04-02T05:43:15.670Z,2.72
2023-04-02T05:45:44.414Z,3.97
2023-04-02T05:48:19.473Z,3.85
2023-04-02T05:50:49.595Z,3.72
2023-04-02T05:53:29.165Z,3.30
2023-04-02T05:56:00.003Z,3.78
2023-04-02T05:58:36.169Z,4.13
2023-04-02T06:01:24.107Z,3.85
2023-04-02T06:03:56.162Z,3.53
2023-04-02T06:06:43.954Z,3.88
2023-04-02T06:09:19.944Z,3.15
2023-04-02T06:11:49.712Z,4.05
2023-04-02T06:14:16.753Z,3.47
2023-04-02T06:16:44.802Z,4.00
2023-04-02T06:19:17.307Z,3.63
2023-04-02T06:21:49.844Z,4.30
2023-04-02T06:24:20.373Z,4.10
2023-04-02T06:26:52.095Z,4.68
2023-04-02T06:29:28.207Z,4.50
2023-04-02T06:32:02.420Z,4.22
2023-04-02T06:34:30.006Z,4.78
2023-04-02T06:36:59.202Z,4.80
2023-04-02T06:39:27.140Z,4.15
2023-04-02T06:42:13.601Z,4.57
2023-04-02T06:44:40.370Z,4.80
2023-04-02T06:47:13.428Z,5.32
2023-04-02T06:49:51.333Z,4.70
2023-04-02T06:52:50.249Z,3.65
2023-04-02T06:55:45.154Z,5.15
2023-04-02T06:58:11.651Z,5.10
2023-04-02T07:00:43.240Z,4.90
2023-04-02T07:03:17.094Z,4.30
2023-04-02T07:05:43.497Z,4.07
2023-04-02T07:08:09.918Z,4.15
2023-04-02T07:10:37.021Z,4.78
2023-04-02T07:13:03.472Z,4.60
2023-04-02T07:15:30.037Z,4.22
2023-04-02T07:17:59.027Z,4.55
2023-04-02T07:20:37.561Z,3.72
2023-04-02T07:23:04.226Z,3.95
2023-04-02T07:25:30.878Z,4.53
2023-04-02T07:27:57.418Z,4.72
2023-04-02T07:30:24.053Z,3.47
2023-04-02T07:32:51.686Z,3.85
2023-04-02T07:35:18.257Z,4.70
2023-04-02T07:37:44.691Z,4.38
2023-04-02T07:40:20.506Z,3.92
2023-04-02T07:42:46.914Z,3.33
2023-04-02T07:45:13.850Z,5.47
2023-04-02T07:47:40.809Z,3.95
2023-04-02T07:50:08.536Z,3.55
2023-04-02T07:52:42.545Z,3.50
2023-04-02T07:55:13.491Z,3.40
2023-04-02T07:57:50.493Z,3.70
2023-04-02T08:00:17.735Z,4.03
2023-04-02T08:02:44.399Z,3.90
2023-04-02T08:05:11.112Z,3.35
2023-04-02T08:07:38.983Z,3.53
2023-04-02T08:10:06.997Z,3.40
2023-04-02T08:12:33.454Z,3.85
2023-04-02T08:14:59.963Z,3.53
2023-04-02T08:17:31.258Z,3.40
2023-04-02T08:20:01.000Z,3.70
2023-04-02T08:22:28.796Z,4.80
2023-04-02T08:24:56.348Z,3.97
2023-04-02T08:27:24.342Z,3.85
2023-04-02T08:29:51.184Z,3.80
2023-04-02T08:32:18.111Z,4.90
2023-04-02T08:34:45.460Z,4.75
2023-04-02T08:37:12.567Z,4.93
2023-04-02T08:39:40.031Z,4.75
2023-04-02T08:42:38.249Z,4.90
2023-04-02T08:45:38.300Z,6.53
2023-04-02T08:48:06.441Z,5.25
2023-04-02T08:50:35.443Z,5.45
2023-04-02T08:53:07.869Z,5.28
2023-04-02T08:55:42.718Z,5.50
2023-04-02T08:58:28.010Z,5.43
2023-04-02T09:00:55.479Z,4.15
2023-04-02T09:03:31.870Z,4.60
2023-04-02T09:08:26.192Z,3.53
2023-04-02T09:11:09.067Z,3.00
2023-04-02T09:13:41.036Z,3.00
2023-04-02T09:16:12.756Z,2.85
2023-04-02T09:18:39.458Z,2.50
2023-04-02T09:21:21.130Z,2.63
2023-04-02T09:23:48.210Z,2.70
2023-04-02T09:26:41.097Z,2.53
2023-04-02T09:29:13.499Z,2.90
2023-04-02T09:31:50.899Z,2.72
2023-04-02T09:34:31.847Z,2.72
2023-04-02T09:37:07.245Z,2.47
2023-04-02T09:39:34.389Z,2.50
2023-04-02T09:42:06.183Z,2.63
2023-04-02T09:44:32.876Z,2.15
2023-04-02T09:47:03.912Z,2.30
2023-04-02T09:49:33.130Z,2.50
2023-04-02T09:52:09.002Z,3.35
2023-04-02T09:57:23.522Z,2.67
2023-04-02T10:00:41.821Z,2.88
2023-04-02T10:03:32.807Z,2.50
2023-04-02T10:06:15.427Z,2.50
2023-04-02T10:08:43.685Z,2.55
2023-04-02T10:11:30.958Z,2.50
2023-04-02T10:14:06.570Z,2.47
2023-04-02T10:16:44.837Z,2.55
2023-04-02T10:19:36.738Z,2.40
2023-04-02T10:22:12.817Z,2.40
2023-04-02T10:24:39.719Z,2.58
2023-04-02T10:27:29.547Z,2.90
2023-04-02T10:30:21.111Z,2.70
2023-04-02T10:33:38.705Z,2.67
2023-04-02T10:36:35.605Z,2.30
2023-04-02T10:39:08.421Z,2.70
2023-04-02T10:41:46.827Z,1.92
2023-04-02T10:44:33.416Z,2.08
2023-04-02T10:47:19.772Z,2.65
2023-04-02T10:49:46.339Z,2.38
2023-04-02T10:52:21.593Z,2.17
2023-04-02T10:54:47.955Z,2.65
2023-04-02T10:57:32.640Z,2.10
2023-04-02T11:00:09.295Z,2.20
2023-04-02T11:02:49.474Z,2.22
2023-04-02T11:05:45.289Z,2.63
2023-04-02T11:08:51.285Z,2.20
2023-04-02T11:11:21.447Z,2.40
2023-04-02T11:13:58.973Z,2.65
2023-04-02T11:16:25.635Z,2.60
2023-04-02T11:19:17.178Z,2.00
2023-04-02T11:22:01.469Z,2.38
2023-04-02T11:24:34.408Z,1.75
2023-04-02T11:27:11.099Z,2.28
2023-04-02T11:29:39.533Z,2.50
2023-04-02T11:32:25.179Z,2.45
2023-04-02T11:35:06.341Z,2.03
2023-04-02T11:37:37.360Z,2.00
2023-04-02T11:40:15.766Z,2.20
2023-04-02T11:42:44.006Z,2.00
2023-04-02T11:45:28.706Z,2.30
2023-04-02T11:48:01.342Z,2.35
2023-04-02T11:50:39.564Z,2.40
2023-04-02T11:53:21.554Z,2.20
2023-04-02T11:55:54.001Z,2.42
2023-04-02T11:58:27.473Z,2.60
2023-04-02T12:01:14.710Z,2.10
2023-04-02T12:04:05.621Z,1.90
2023-04-02T12:06:49.228Z,2.30
2023-04-02T12:09:19.668Z,2.20
2023-04-02T12:11:47.410Z,2.30
2023-04-02T12:14:41.540Z,2.30
2023-04-02T12:17:16.264Z,2.28
2023-04-02T12:19:48.094Z,2.40
2023-04-02T12:22:19.470Z,2.55
2023-04-02T12:24:47.584Z,2.42
2023-04-02T12:27:27.612Z,2.40
2023-04-02T12:29:56.031Z,2.75
2023-04-02T12:32:29.893Z,2.40
2023-04-02T12:34:58.076Z,2.63
2023-04-02T12:37:27.280Z,2.40
2023-04-02T12:40:01.204Z,1.88
2023-04-02T12:42:37.585Z,2.20
2023-04-02T12:45:06.792Z,2.15
2023-04-02T12:47:33.301Z,2.05
2023-04-02T12:50:00.762Z,2.30
2023-04-02T12:52:28.930Z,2.30
2023-04-02T12:55:00.718Z,2.20
2023-04-02T12:57:31.729Z,2.00
2023-04-02T13:00:06.115Z,2.25
2023-04-02T13:02:44.581Z,2.13
2023-04-02T13:05:11.818Z,2.30
2023-04-02T13:07:38.590Z,2.40
2023-04-02T13:10:23.124Z,2.75
2023-04-02T13:12:55.419Z,2.30
2023-04-02T13:15:23.900Z,2.85
2023-04-02T13:18:02.591Z,2.70
2023-04-02T13:20:39.206Z,3.10
2023-04-02T13:23:31.319Z,3.10
2023-04-02T13:26:10.892Z,2.50
2023-04-02T13:28:37.533Z,1.90
2023-04-02T13:31:04.095Z,2.10
2023-04-02T13:33:30.555Z,2.30
2023-04-02T13:35:57.026Z,2.00
2023-04-02T13:38:23.484Z,2.25
2023-04-02T13:40:51.290Z,2.40
2023-04-02T13:43:19.731Z,2.35
2023-04-02T13:45:52.072Z,1.85
2023-04-02T13:48:18.707Z,2.20
2023-04-02T13:50:46.216Z,2.13
2023-04-02T13:53:28.358Z,2.15
2023-04-02T13:55:54.984Z,2.30
2023-04-02T13:58:21.689Z,2.20
2023-04-02T14:00:48.281Z,2.30
2023-04-02T14:03:21.755Z,2.50
2023-04-02T14:05:58.078Z,2.42
2023-04-02T14:08:53.330Z,2.42
2023-04-02T14:12:04.716Z,2.22
2023-04-02T14:14:56.153Z,2.38
2023-04-02T14:17:56.496Z,2.30
2023-04-02T14:21:04.073Z,2.47
2023-04-02T14:23:33.455Z,2.45
2023-04-02T14:26:11.942Z,2.20
2023-04-02T14:28:50.615Z,2.40
2023-04-02T14:31:23.132Z,2.42
2023-04-02T14:33:57.739Z,2.30
2023-04-02T14:36:42.700Z,2.13
2023-04-02T14:39:24.498Z,2.15
2023-04-02T14:42:05.105Z,2.30
2023-04-02T14:44:37.021Z,2.20
2023-04-02T14:47:33.995Z,2.10
2023-04-02T14:50:11.988Z,2.10
2023-04-02T14:52:41.834Z,2.20
2023-04-02T14:55:32.821Z,2.17
2023-04-02T14:58:02.423Z,1.98
2023-04-02T15:00:41.814Z,2.10
2023-04-02T15:03:32.382Z,2.33
2023-04-02T15:06:06.842Z,2.10
2023-04-02T15:09:08.311Z,2.00
2023-04-02T15:11:43.471Z,2.25
2023-04-02T15:14:17.140Z,1.90
2023-04-02T15:16:43.961Z,2.40
2023-04-02T15:19:13.353Z,2.30
2023-04-02T15:21:58.947Z,2.25
2023-04-02T15:24:50.601Z,2.45
2023-04-02T15:27:49.540Z,1.70
2023-04-02T15:30:22.071Z,2.20
2023-04-02T15:32:49.316Z,1.85
2023-04-02T15:35:55.619Z,2.03
2023-04-02T15:38:37.350Z,2.17
2023-04-02T15:41:23.543Z,2.33
2023-04-02T15:44:14.712Z,2.00
2023-04-02T15:46:59.431Z,3.70
2023-04-02T15:49:54.885Z,2.80
2023-04-02T15:52:30.348Z,2.42
2023-04-02T15:57:54.652Z,2.35
2023-04-02T16:00:28.354Z,2.22
2023-04-02T16:03:20.970Z,2.35
2023-04-02T16:06:16.862Z,2.00
2023-04-02T16:09:14.376Z,2.20
2023-04-02T16:11:40.787Z,2.10
2023-04-02T16:14:17.213Z,2.25
2023-04-02T16:16:46.710Z,2.00
2023-04-02T16:19:28.927Z,2.00
2023-04-02T16:22:26.930Z,1.80
2023-04-02T16:25:00.280Z,2.05
2023-04-02T16:27:37.720Z,1.90
2023-04-02T16:30:29.957Z,1.70
2023-04-02T16:33:31.845Z,1.98
2023-04-02T16:36:08.929Z,2.05
2023-04-02T16:38:50.595Z,2.20
2023-04-02T16:44:20.622Z,1.95
2023-04-02T16:46:56.174Z,1.80
2023-04-02T16:52:21.306Z,2.08
2023-04-02T16:57:58.912Z,1.70
2023-04-02T17:00:36.997Z,1.85
2023-04-02T17:03:37.492Z,2.20
2023-04-02T17:08:59.696Z,2.15
2023-04-02T17:11:47.545Z,1.90
2023-04-02T17:14:41.250Z,2.30
2023-04-02T17:17:11.523Z,2.00
2023-04-02T17:19:39.417Z,1.98
2023-04-02T17:22:06.276Z,2.33
2023-04-02T17:24:39.374Z,2.15
2023-04-02T17:27:29.146Z,2.22
2023-04-02T17:30:01.272Z,2.55
2023-04-02T17:32:31.445Z,2.85
2023-04-02T17:35:12.568Z,3.40
2023-04-02T17:37:43.376Z,2.28
2023-04-02T17:40:26.252Z,2.40
2023-04-02T17:43:05.445Z,2.08
2023-04-02T17:46:05.270Z,2.40
2023-04-02T17:48:45.390Z,1.85
2023-04-02T17:51:11.756Z,2.20
2023-04-02T17:54:07.341Z,2.08
2023-04-02T17:56:52.649Z,1.90
2023-04-02T17:59:28.228Z,2.10
2023-04-02T18:02:12.913Z,1.85
2023-04-02T18:05:20.711Z,2.03
2023-04-02T18:08:05.740Z,1.92
2023-04-02T18:10:39.673Z,1.70
2023-04-02T18:13:23.946Z,2.10
2023-04-02T18:16:02.166Z,2.00
2023-04-02T18:18:58.908Z,1.95
2023-04-02T18:21:39.421Z,3.22
2023-04-02T18:24:10.451Z,2.45
2023-04-02T18:27:03.192Z,2.35
2023-04-02T18:29:41.989Z,2.20
2023-04-02T18:32:34.214Z,2.30
2023-04-02T18:35:03.504Z,2.13
2023-04-02T18:37:39.422Z,2.50
2023-04-02T18:40:24.485Z,2.15
2023-04-02T18:43:28.635Z,2.00
2023-04-02T18:45:59.375Z,2.17
2023-04-02T18:48:56.607Z,2.58
2023-04-02T18:51:25.135Z,2.78
2023-04-02T18:53:57.147Z,2.47
2023-04-02T18:56:24.587Z,2.95
2023-04-02T18:58:56.748Z,2.47
2023-04-02T19:01:28.126Z,3.30
2023-04-02T19:04:04.545Z,3.03
2023-04-02T19:06:42.061Z,2.92
2023-04-02T19:09:18.128Z,2.80
2023-04-02T19:11:44.514Z,2.88
2023-04-02T19:14:14.241Z,2.55
2023-04-02T19:17:02.581Z,2.22
2023-04-02T19:19:37.948Z,2.00
2023-04-02T19:22:41.743Z,2.60
2023-04-02T19:25:30.407Z,2.95
2023-04-02T19:28:07.719Z,3.00
2023-04-02T19:30:57.289Z,3.90
2023-04-02T19:33:44.299Z,2.92
2023-04-02T19:36:38.792Z,2.45
2023-04-02T19:39:28.161Z,2.75
2023-04-02T19:42:03.437Z,2.05
2023-04-02T19:44:29.976Z,1.92
2023-04-02T19:46:56.561Z,2.28
2023-04-02T19:49:33.731Z,2.20
2023-04-02T19:52:00.397Z,2.30
2023-04-02T19:54:26.850Z,2.50
2023-04-02T19:56:53.445Z,1.90
2023-04-02T19:59:20.006Z,2.22
2023-04-02T20:01:46.924Z,2.70
2023-04-02T20:04:13.839Z,2.20
2023-04-02T20:06:40.402Z,2.28
2023-04-02T20:09:08.497Z,1.90
2023-04-02T20:11:36.788Z,2.25
2023-04-02T20:14:03.584Z,2.00
2023-04-02T20:16:32.690Z,2.00
2023-04-02T20:18:59.170Z,2.00
2023-04-02T20:21:26.726Z,2.08
2023-04-02T20:23:54.395Z,2.15
2023-04-02T20:26:22.499Z,2.20
2023-04-02T20:28:49.012Z,2.35
2023-04-02T20:31:18.146Z,1.85
2023-04-02T20:33:45.274Z,1.73
2023-04-02T20:36:16.321Z,1.85
2023-04-02T20:38:43.478Z,2.40
2023-04-02T20:41:09.979Z,1.90
2023-04-02T20:43:37.573Z,1.90
2023-04-02T20:46:05.644Z,1.63
2023-04-02T20:48:33.110Z,1.80
2023-04-02T20:51:00.558Z,1.63
2023-04-02T20:53:29.154Z,2.03
2023-04-02T20:56:06.380Z,1.88
2023-04-02T20:58:34.218Z,1.23
2023-04-02T21:01:17.179Z,1.80
2023-04-02T21:03:43.872Z,2.15
2023-04-02T21:06:15.793Z,1.85
2023-04-02T21:08:42.878Z,1.90
2023-04-02T21:11:10.028Z,1.70
2023-04-02T21:13:37.071Z,1.75
2023-04-02T21:16:05.218Z,1.88
2023-04-02T21:18:32.712Z,2.03
2023-04-02T21:21:01.381Z,2.00
2023-04-02T21:23:29.083Z,1.98
2023-04-02T21:25:58.595Z,2.00
2023-04-02T21:28:25.351Z,1.80
2023-04-02T21:30:51.821Z,2.15
2023-04-02T21:33:18.244Z,2.15
2023-04-02T21:35:44.700Z,1.98
2023-04-02T21:38:11.129Z,2.00
2023-04-02T21:40:37.522Z,1.75
2023-04-02T21:43:03.938Z,1.70
2023-04-02T21:45:30.438Z,2.17
2023-04-02T21:47:56.882Z,2.00
2023-04-02T21:50:23.425Z,1.95
2023-04-02T21:52:49.901Z,1.90
2023-04-02T21:55:16.359Z,1.90
2023-04-02T21:57:42.843Z,1.98
2023-04-02T22:00:12.327Z,2.00
2023-04-02T22:02:39.063Z,2.05
2023-04-02T22:05:06.130Z,2.00
2023-04-02T22:07:32.564Z,2.10
2023-04-02T22:09:59.009Z,1.60
2023-04-02T22:12:25.482Z,1.92
2023-04-02T22:14:51.883Z,2.55
2023-04-02T22:17:18.306Z,1.83
2023-04-02T22:19:44.757Z,1.83
2023-04-02T22:22:11.181Z,1.50
2023-04-02T22:24:37.579Z,1.60
2023-04-02T22:27:04.011Z,1.90
2023-04-02T22:29:30.392Z,2.15
2023-04-02T22:31:56.827Z,1.60
2023-04-02T22:34:23.327Z,1.70
2023-04-02T22:36:49.879Z,1.75
2023-04-02T22:39:17.074Z,1.85
2023-04-02T22:41:43.644Z,2.10
2023-04-02T22:44:14.145Z,2.00
2023-04-02T22:46:40.679Z,2.10
2023-04-02T22:49:07.275Z,2.15
2023-04-02T22:51:33.848Z,1.60
2023-04-02T22:54:00.235Z,1.80
2023-04-02T22:56:32.033Z,1.55
2023-04-02T22:58:58.822Z,1.63
2023-04-02T23:01:32.192Z,1.73
2023-04-02T23:03:58.646Z,1.67
2023-04-02T23:06:25.379Z,1.55
2023-04-02T23:08:52.284Z,1.90
2023-04-02T23:11:24.691Z,1.90
2023-04-02T23:13:52.507Z,2.15
2023-04-02T23:16:19.725Z,1.80
2023-04-02T23:18:48.076Z,1.60
2023-04-02T23:21:15.561Z,1.45
2023-04-02T23:23:42.002Z,1.70
2023-04-02T23:26:13.727Z,1.73
2023-04-02T23:28:40.644Z,1.67
2023-04-02T23:31:09.322Z,1.98
2023-04-02T23:33:35.736Z,1.90
2023-04-02T23:36:17.629Z,1.70
2023-04-02T23:38:44.111Z,1.60
2023-04-02T23:41:14.722Z,2.15
2023-04-02T23:43:41.377Z,1.90
2023-04-02T23:46:07.782Z,1.83
2023-04-02T23:48:34.289Z,1.60
2023-04-02T23:51:00.832Z,1.60
2023-04-02T23:53:27.281Z,1.50
2023-04-02T23:55:53.693Z,1.73
2023-04-02T23:58:20.220Z,1.65
